createdAt,value
2023-01-13T00:01:58.833Z,8.29
2023-01-13T00:04:25.559Z,8.28
2023-01-13T00:06:52.540Z,7.96
2023-01-13T00:09:19.169Z,8.00
2023-01-13T00:11:49.026Z,8.11
2023-01-13T00:14:19.635Z,7.95
2023-01-13T00:16:46.395Z,8.01
2023-01-13T00:19:20.036Z,7.97
2023-01-13T00:21:52.217Z,7.84
2023-01-13T00:24:21.731Z,7.95
2023-01-13T00:26:48.510Z,7.57
2023-01-13T00:29:17.189Z,7.94
2023-01-13T00:31:50.205Z,8.01
2023-01-13T00:34:19.361Z,7.96
2023-01-13T00:36:46.235Z,7.95
2023-01-13T00:39:20.669Z,7.95
2023-01-13T00:42:05.972Z,8.02
2023-01-13T00:44:35.005Z,7.96
2023-01-13T00:47:02.971Z,8.03
2023-01-13T00:49:30.083Z,8.06
2023-01-13T00:51:56.708Z,8.04
2023-01-13T00:54:28.031Z,8.04
2023-01-13T00:57:04.865Z,7.91
2023-01-13T00:59:32.052Z,8.13
2023-01-13T01:02:02.241Z,8.28
2023-01-13T01:04:29.147Z,8.06
2023-01-13T01:07:00.715Z,8.03
2023-01-13T01:09:35.939Z,7.93
2023-01-13T01:12:02.883Z,8.10
2023-01-13T01:14:29.513Z,7.99
2023-01-13T01:16:57.853Z,8.10
2023-01-13T01:19:24.737Z,7.93
2023-01-13T01:21:51.387Z,7.85
2023-01-13T01:24:18.056Z,8.02
2023-01-13T01:26:44.742Z,8.02
2023-01-13T01:29:17.327Z,7.63
2023-01-13T01:31:58.021Z,8.01
2023-01-13T01:34:24.663Z,7.97
2023-01-13T01:36:51.222Z,8.01
2023-01-13T01:39:17.919Z,8.03
2023-01-13T01:42:04.454Z,7.85
2023-01-13T01:44:43.151Z,7.96
2023-01-13T01:47:14.999Z,7.77
2023-01-13T01:49:49.341Z,7.77
2023-01-13T01:52:35.102Z,7.96
2023-01-13T01:55:13.448Z,7.94
2023-01-13T01:57:47.086Z,7.78
2023-01-13T02:00:16.925Z,7.71
2023-01-13T02:02:46.481Z,8.01
2023-01-13T02:05:15.400Z,8.13
2023-01-13T02:07:52.481Z,8.09
2023-01-13T02:10:24.387Z,8.13
2023-01-13T02:12:52.716Z,8.07
2023-01-13T02:15:54.335Z,8.09
2023-01-13T02:18:55.418Z,8.02
2023-01-13T02:22:06.249Z,7.78
2023-01-13T02:25:05.443Z,8.12
2023-01-13T02:27:58.220Z,7.64
2023-01-13T02:30:49.439Z,8.15
2023-01-13T02:33:34.510Z,8.14
2023-01-13T02:36:39.804Z,8.11
2023-01-13T02:39:19.462Z,8.01
2023-01-13T02:42:23.653Z,7.96
2023-01-13T02:45:13.581Z,7.91
2023-01-13T02:47:44.656Z,7.71
2023-01-13T02:50:17.597Z,7.49
2023-01-13T02:52:50.917Z,7.74
2023-01-13T02:55:23.630Z,7.38
2023-01-13T02:57:53.157Z,7.41
2023-01-13T03:00:20.842Z,7.71
2023-01-13T03:02:49.265Z,7.77
2023-01-13T03:05:17.427Z,7.80
2023-01-13T03:07:44.041Z,7.79
2023-01-13T03:10:38.379Z,7.78
2023-01-13T03:13:47.211Z,7.91
2023-01-13T03:16:44.984Z,7.39
2023-01-13T03:19:25.123Z,7.80
2023-01-13T03:22:22.370Z,7.91
2023-01-13T03:24:55.443Z,8.15
2023-01-13T03:27:43.729Z,8.10
2023-01-13T03:30:37.261Z,8.02
2023-01-13T03:33:15.557Z,7.78
2023-01-13T03:35:50.428Z,8.07
2023-01-13T03:38:39.505Z,8.07
2023-01-13T03:41:22.198Z,8.03
2023-01-13T03:44:12.379Z,7.82
2023-01-13T03:46:57.063Z,7.95
2023-01-13T03:49:35.867Z,8.03
2023-01-13T03:52:07.503Z,8.17
2023-01-13T03:54:44.139Z,8.29
2023-01-13T03:57:19.190Z,8.16
2023-01-13T03:59:53.022Z,8.30
2023-01-13T04:02:51.529Z,8.06
2023-01-13T04:05:19.432Z,8.14
2023-01-13T04:08:09.656Z,8.15
2023-01-13T04:10:58.962Z,8.01
2023-01-13T04:13:30.247Z,8.01
2023-01-13T04:15:57.066Z,7.19
2023-01-13T04:18:30.383Z,7.66
2023-01-13T04:21:00.428Z,6.94
2023-01-13T04:23:28.217Z,7.66
2023-01-13T04:26:05.026Z,7.59
2023-01-13T04:28:38.230Z,7.63
2023-01-13T04:31:11.235Z,7.23
2023-01-13T04:33:37.997Z,7.65
2023-01-13T04:36:05.269Z,7.22
2023-01-13T04:38:38.437Z,7.53
2023-01-13T04:41:12.549Z,7.61
2023-01-13T04:43:41.347Z,7.49
2023-01-13T04:46:14.056Z,7.51
2023-01-13T04:48:42.053Z,7.58
2023-01-13T04:51:10.989Z,7.57
2023-01-13T04:53:37.620Z,7.25
2023-01-13T04:56:04.322Z,7.06
2023-01-13T04:58:31.037Z,7.58
2023-01-13T05:00:57.854Z,7.67
2023-01-13T05:06:16.611Z,7.61
2023-01-13T05:08:46.405Z,7.63
2023-01-13T05:11:33.869Z,7.47
2023-01-13T05:14:22.022Z,7.41
2023-01-13T05:17:01.864Z,7.40
2023-01-13T05:19:36.395Z,7.42
2023-01-13T05:22:29.174Z,7.22
2023-01-13T05:25:14.433Z,7.45
2023-01-13T05:27:41.462Z,7.34
2023-01-13T05:30:09.837Z,7.36
2023-01-13T05:32:37.921Z,7.47
2023-01-13T05:35:04.702Z,7.04
2023-01-13T05:37:36.438Z,7.30
2023-01-13T05:40:24.845Z,7.20
2023-01-13T05:43:21.461Z,7.42
2023-01-13T05:46:03.312Z,7.35
2023-01-13T05:48:37.457Z,7.39
2023-01-13T05:51:07.644Z,6.76
2023-01-13T05:53:36.545Z,6.80
2023-01-13T05:56:13.285Z,7.26
2023-01-13T05:58:40.378Z,7.11
2023-01-13T06:01:08.889Z,6.74
2023-01-13T06:03:36.302Z,7.24
2023-01-13T06:06:05.232Z,7.07
2023-01-13T06:08:38.670Z,7.11
2023-01-13T06:11:07.716Z,7.13
2023-01-13T06:13:34.573Z,7.23
2023-01-13T06:16:01.417Z,6.71
2023-01-13T06:18:29.181Z,6.47
2023-01-13T06:20:56.432Z,7.17
2023-01-13T06:23:23.442Z,7.17
2023-01-13T06:26:15.622Z,7.17
2023-01-13T06:28:42.266Z,7.16
2023-01-13T06:31:10.429Z,7.13
2023-01-13T06:33:49.498Z,6.84
2023-01-13T06:36:45.081Z,6.92
2023-01-13T06:39:19.058Z,6.93
2023-01-13T06:42:09.573Z,7.20
2023-01-13T06:44:36.342Z,6.96
2023-01-13T06:47:03.735Z,6.99
2023-01-13T06:49:33.351Z,7.12
2023-01-13T06:52:01.060Z,7.10
2023-01-13T06:54:27.899Z,6.97
2023-01-13T06:56:55.317Z,7.04
2023-01-13T06:59:22.823Z,6.68
2023-01-13T07:01:49.722Z,7.16
2023-01-13T07:04:30.032Z,7.23
2023-01-13T07:06:56.967Z,7.11
2023-01-13T07:09:23.597Z,6.62
2023-01-13T07:11:52.121Z,7.28
2023-01-13T07:14:42.762Z,7.33
2023-01-13T07:17:10.343Z,7.23
2023-01-13T07:19:37.891Z,7.24
2023-01-13T07:22:07.840Z,7.37
2023-01-13T07:24:34.512Z,7.33
2023-01-13T07:27:07.047Z,7.24
2023-01-13T07:29:45.408Z,6.87
2023-01-13T07:32:12.149Z,7.37
2023-01-13T07:34:38.885Z,7.42
2023-01-13T07:37:09.436Z,7.46
2023-01-13T07:39:36.097Z,7.29
2023-01-13T07:42:21.307Z,7.46
2023-01-13T07:44:50.093Z,7.11
2023-01-13T07:47:17.121Z,7.03
2023-01-13T07:50:01.650Z,7.51
2023-01-13T07:52:28.775Z,7.53
2023-01-13T07:54:55.417Z,7.55
2023-01-13T07:57:22.039Z,7.63
2023-01-13T07:59:48.793Z,7.53
2023-01-13T08:02:15.700Z,7.60
2023-01-13T08:04:42.453Z,7.71
2023-01-13T08:07:09.031Z,7.10
2023-01-13T08:09:38.011Z,7.80
2023-01-13T08:12:26.473Z,7.34
2023-01-13T08:14:54.140Z,7.81
2023-01-13T08:17:20.989Z,7.73
2023-01-13T08:19:52.627Z,7.68
2023-01-13T08:22:19.418Z,7.58
2023-01-13T08:24:46.207Z,7.92
2023-01-13T08:27:12.921Z,7.76
2023-01-13T08:29:39.498Z,7.85
2023-01-13T08:32:06.785Z,7.43
2023-01-13T08:34:33.388Z,8.00
2023-01-13T08:37:00.188Z,7.74
2023-01-13T08:39:27.086Z,8.03
2023-01-13T08:41:56.682Z,8.00
2023-01-13T08:44:25.843Z,7.67
2023-01-13T08:46:52.480Z,8.00
2023-01-13T08:49:19.126Z,8.12
2023-01-13T08:51:46.183Z,8.05
2023-01-13T08:54:14.213Z,8.08
2023-01-13T08:56:42.801Z,8.09
2023-01-13T08:59:18.902Z,7.87
2023-01-13T09:01:46.277Z,8.27
2023-01-13T09:04:21.616Z,7.46
2023-01-13T09:06:49.267Z,8.08
2023-01-13T09:09:16.042Z,8.43
2023-01-13T09:12:05.904Z,8.17
2023-01-13T09:14:34.690Z,8.70
2023-01-13T09:17:04.569Z,8.83
2023-01-13T09:19:50.689Z,8.64
2023-01-13T09:22:19.377Z,8.83
2023-01-13T09:24:46.543Z,8.45
2023-01-13T09:27:15.188Z,8.74
2023-01-13T09:29:41.923Z,8.93
2023-01-13T09:32:13.207Z,8.90
2023-01-13T09:34:58.400Z,8.90
2023-01-13T09:37:25.321Z,9.09
2023-01-13T09:39:52.009Z,9.32
2023-01-13T09:42:40.435Z,9.26
2023-01-13T09:45:17.977Z,9.29
2023-01-13T09:48:15.445Z,9.24
2023-01-13T09:50:48.043Z,9.32
2023-01-13T09:53:24.603Z,9.19
2023-01-13T09:55:51.517Z,9.22
2023-01-13T09:58:19.502Z,9.10
2023-01-13T10:00:51.446Z,9.20
2023-01-13T10:03:31.868Z,8.74
2023-01-13T10:06:07.414Z,9.20
2023-01-13T10:08:43.227Z,9.45
2023-01-13T10:11:40.625Z,8.77
2023-01-13T10:14:16.881Z,9.82
2023-01-13T10:17:19.961Z,9.79
2023-01-13T10:20:30.694Z,9.86
2023-01-13T10:23:09.058Z,9.48
2023-01-13T10:25:44.731Z,9.53
2023-01-13T10:28:14.175Z,9.87
2023-01-13T10:30:52.561Z,9.94
2023-01-13T10:33:30.325Z,9.97
2023-01-13T10:36:14.147Z,10.14
2023-01-13T10:38:50.909Z,9.74
2023-01-13T10:41:26.765Z,10.21
2023-01-13T10:44:07.722Z,10.18
2023-01-13T10:46:55.530Z,10.15
2023-01-13T10:49:40.425Z,10.18
2023-01-13T10:52:29.604Z,10.08
2023-01-13T10:54:57.416Z,10.19
2023-01-13T10:57:37.738Z,10.14
2023-01-13T11:00:26.193Z,10.09
2023-01-13T11:03:31.105Z,10.01
2023-01-13T11:06:09.008Z,10.19
2023-01-13T11:08:53.102Z,10.05
2023-01-13T11:11:42.192Z,9.74
2023-01-13T11:14:33.491Z,10.16
2023-01-13T11:17:09.709Z,10.14
2023-01-13T11:19:47.506Z,10.11
2023-01-13T11:22:21.759Z,9.97
2023-01-13T11:25:00.783Z,10.11
2023-01-13T11:27:45.162Z,10.06
2023-01-13T11:30:22.238Z,9.74
2023-01-13T11:33:15.328Z,9.89
2023-01-13T11:36:02.878Z,10.10
2023-01-13T11:39:12.090Z,10.12
2023-01-13T11:41:44.137Z,10.31
2023-01-13T11:44:15.287Z,9.96
2023-01-13T11:46:43.869Z,10.34
2023-01-13T11:49:22.387Z,10.40
2023-01-13T11:52:06.662Z,10.36
2023-01-13T11:54:54.539Z,9.87
2023-01-13T11:57:46.974Z,10.44
2023-01-13T12:00:32.526Z,10.17
2023-01-13T12:03:15.712Z,10.00
2023-01-13T12:05:42.433Z,10.20
2023-01-13T12:08:53.590Z,10.52
2023-01-13T12:11:34.548Z,10.42
2023-01-13T12:14:07.720Z,10.10
2023-01-13T12:16:36.511Z,10.47
2023-01-13T12:19:39.289Z,10.52
2023-01-13T12:22:16.437Z,10.50
2023-01-13T12:25:05.080Z,10.54
2023-01-13T12:27:52.944Z,10.33
2023-01-13T12:30:40.856Z,10.58
2023-01-13T12:33:24.797Z,10.58
2023-01-13T12:36:19.668Z,10.52
2023-01-13T12:38:51.846Z,10.53
2023-01-13T12:42:05.901Z,10.52
2023-01-13T12:44:40.729Z,10.53
2023-01-13T12:47:34.688Z,10.50
2023-01-13T12:50:28.368Z,10.39
2023-01-13T12:53:01.073Z,10.65
2023-01-13T12:55:33.797Z,10.52
2023-01-13T12:58:06.319Z,10.64
2023-01-13T13:00:54.992Z,10.56
2023-01-13T13:03:33.524Z,10.44
2023-01-13T13:06:20.834Z,10.56
2023-01-13T13:08:57.163Z,10.43
2023-01-13T13:12:01.935Z,10.43
2023-01-13T13:14:37.741Z,10.50
2023-01-13T13:17:28.207Z,10.54
2023-01-13T13:19:59.935Z,10.24
2023-01-13T13:22:34.551Z,10.05
2023-01-13T13:25:04.145Z,10.45
2023-01-13T13:27:33.735Z,10.50
2023-01-13T13:30:17.293Z,10.04
2023-01-13T13:32:56.489Z,10.00
2023-01-13T13:36:02.670Z,9.97
2023-01-13T13:39:16.048Z,10.17
2023-01-13T13:42:05.794Z,9.81
2023-01-13T13:45:08.124Z,10.05
2023-01-13T13:47:37.190Z,10.06
2023-01-13T13:50:23.870Z,9.98
2023-01-13T13:53:06.399Z,9.33
2023-01-13T13:55:42.972Z,9.97
2023-01-13T13:58:18.863Z,9.99
2023-01-13T14:00:50.457Z,9.80
2023-01-13T14:03:30.482Z,9.66
2023-01-13T14:06:00.976Z,10.05
2023-01-13T14:08:29.959Z,10.00
2023-01-13T14:10:57.013Z,10.09
2023-01-13T14:13:37.322Z,9.75
2023-01-13T14:16:07.619Z,9.97
2023-01-13T14:18:46.121Z,10.15
2023-01-13T14:21:12.732Z,10.05
2023-01-13T14:23:42.510Z,9.85
2023-01-13T14:26:17.337Z,10.03
2023-01-13T14:28:52.240Z,9.97
2023-01-13T14:31:23.506Z,9.85
2023-01-13T14:34:32.659Z,10.03
2023-01-13T14:37:09.586Z,9.79
2023-01-13T14:39:44.150Z,9.60
2023-01-13T14:42:16.543Z,10.08
2023-01-13T14:44:56.584Z,9.92
2023-01-13T14:47:29.774Z,8.50
2023-01-13T14:50:16.830Z,9.68
2023-01-13T14:52:50.298Z,10.07
2023-01-13T14:55:41.841Z,10.09
2023-01-13T14:58:28.751Z,9.61
2023-01-13T15:01:41.658Z,10.10
2023-01-13T15:04:43.357Z,9.98
2023-01-13T15:07:24.883Z,10.38
2023-01-13T15:09:55.635Z,10.40
2023-01-13T15:12:35.781Z,10.33
2023-01-13T15:15:21.897Z,10.35
2023-01-13T15:17:48.610Z,10.21
2023-01-13T15:20:21.219Z,10.06
2023-01-13T15:22:48.543Z,9.33
2023-01-13T15:25:15.619Z,9.93
2023-01-13T15:27:51.037Z,9.95
2023-01-13T15:30:28.774Z,9.68
2023-01-13T15:32:57.372Z,8.86
2023-01-13T15:35:30.533Z,9.69
2023-01-13T15:38:00.174Z,9.56
2023-01-13T15:40:32.526Z,9.65
2023-01-13T15:43:37.177Z,9.60
2023-01-13T15:46:32.554Z,9.67
2023-01-13T15:49:50.710Z,9.64
2023-01-13T15:52:26.805Z,9.14
2023-01-13T15:55:03.811Z,9.60
2023-01-13T15:57:48.617Z,9.46
2023-01-13T16:00:23.761Z,9.49
2023-01-13T16:03:00.793Z,9.35
2023-01-13T16:05:37.015Z,8.99
2023-01-13T16:08:03.897Z,9.29
2023-01-13T16:10:31.159Z,9.30
2023-01-13T16:12:59.354Z,9.22
2023-01-13T16:15:39.110Z,9.24
2023-01-13T16:18:19.887Z,9.19
2023-01-13T16:20:53.239Z,9.17
2023-01-13T16:23:23.615Z,8.91
2023-01-13T16:25:51.084Z,9.10
2023-01-13T16:28:31.736Z,9.11
2023-01-13T16:30:59.387Z,8.72
2023-01-13T16:33:34.121Z,8.93
2023-01-13T16:36:13.732Z,9.06
2023-01-13T16:38:48.326Z,9.02
2023-01-13T16:41:17.630Z,8.89
2023-01-13T16:43:47.305Z,8.89
2023-01-13T16:46:17.599Z,8.94
2023-01-13T16:48:51.031Z,8.78
2023-01-13T16:51:18.109Z,8.53
2023-01-13T16:53:45.021Z,8.55
2023-01-13T16:56:30.029Z,8.65
2023-01-13T16:59:04.825Z,8.75
2023-01-13T17:01:42.284Z,8.69
2023-01-13T17:04:20.620Z,8.75
2023-01-13T17:07:08.543Z,8.53
2023-01-13T17:09:35.569Z,8.64
2023-01-13T17:12:02.418Z,8.59
2023-01-13T17:14:29.399Z,8.54
2023-01-13T17:16:59.962Z,7.78
2023-01-13T17:19:34.752Z,8.70
2023-01-13T17:22:02.326Z,8.50
2023-01-13T17:24:31.192Z,8.32
2023-01-13T17:27:08.089Z,8.07
2023-01-13T17:29:34.795Z,8.54
2023-01-13T17:32:02.204Z,8.58
2023-01-13T17:34:41.385Z,8.54
2023-01-13T17:37:16.225Z,8.57
2023-01-13T17:39:51.255Z,8.53
2023-01-13T17:42:18.427Z,8.41
2023-01-13T17:44:45.425Z,8.52
2023-01-13T17:47:12.389Z,8.54
2023-01-13T17:49:39.116Z,8.62
2023-01-13T17:52:06.730Z,7.97
2023-01-13T17:54:33.482Z,8.52
2023-01-13T17:57:08.484Z,8.49
2023-01-13T17:59:38.506Z,8.43
2023-01-13T18:02:05.596Z,8.46
2023-01-13T18:04:32.521Z,8.20
2023-01-13T18:07:16.587Z,8.44
2023-01-13T18:09:53.553Z,8.39
2023-01-13T18:12:20.282Z,8.37
2023-01-13T18:14:46.920Z,8.40
2023-01-13T18:17:17.660Z,8.39
2023-01-13T18:20:02.756Z,8.28
2023-01-13T18:22:56.980Z,8.28
2023-01-13T18:25:43.646Z,8.14
2023-01-13T18:28:19.381Z,8.37
2023-01-13T18:30:53.912Z,8.07
2023-01-13T18:33:27.452Z,8.22
2023-01-13T18:36:02.581Z,8.08
2023-01-13T18:38:40.543Z,8.20
2023-01-13T18:41:30.644Z,8.01
2023-01-13T18:44:00.042Z,7.93
2023-01-13T18:46:38.050Z,7.88
2023-01-13T18:49:14.267Z,8.07
2023-01-13T18:51:49.463Z,7.78
2023-01-13T18:54:28.351Z,7.90
2023-01-13T18:56:57.373Z,8.14
2023-01-13T18:59:26.673Z,8.16
2023-01-13T19:02:16.895Z,8.15
2023-01-13T19:04:53.764Z,8.21
2023-01-13T19:07:29.463Z,8.18
2023-01-13T19:10:05.325Z,7.25
2023-01-13T19:12:45.923Z,8.14
2023-01-13T19:15:21.542Z,8.02
2023-01-13T19:17:57.758Z,8.10
2023-01-13T19:20:38.457Z,8.05
2023-01-13T19:23:15.596Z,8.07
2023-01-13T19:25:42.275Z,7.98
2023-01-13T19:28:14.384Z,7.82
2023-01-13T19:30:51.316Z,7.65
2023-01-13T19:33:23.701Z,8.01
2023-01-13T19:35:56.424Z,7.87
2023-01-13T19:38:31.235Z,7.62
2023-01-13T19:41:11.346Z,7.78
2023-01-13T19:43:59.959Z,7.90
2023-01-13T19:46:33.238Z,7.85
2023-01-13T19:49:08.544Z,7.72
2023-01-13T19:51:36.305Z,7.69
2023-01-13T19:54:07.243Z,7.78
2023-01-13T19:56:39.491Z,7.79
2023-01-13T19:59:56.101Z,7.55
2023-01-13T20:02:35.738Z,7.41
2023-01-13T20:05:11.774Z,7.59
2023-01-13T20:07:46.168Z,7.62
2023-01-13T20:10:13.591Z,6.90
2023-01-13T20:12:41.829Z,7.56
2023-01-13T20:15:09.861Z,7.48
2023-01-13T20:17:38.273Z,7.16
2023-01-13T20:20:05.463Z,7.59
2023-01-13T20:22:32.560Z,7.57
2023-01-13T20:25:09.562Z,7.39
2023-01-13T20:27:44.771Z,7.61
2023-01-13T20:30:19.564Z,7.70
2023-01-13T20:32:55.809Z,7.18
2023-01-13T20:35:31.541Z,7.74
2023-01-13T20:38:07.401Z,7.70
2023-01-13T20:40:39.733Z,7.65
2023-01-13T20:43:09.316Z,7.59
2023-01-13T20:45:45.515Z,7.61
2023-01-13T20:48:21.060Z,7.37
2023-01-13T20:50:58.937Z,7.48
2023-01-13T20:53:32.383Z,7.48
2023-01-13T20:56:07.415Z,7.44
2023-01-13T20:58:37.337Z,7.49
2023-01-13T21:01:05.347Z,7.47
2023-01-13T21:03:43.229Z,7.44
2023-01-13T21:06:20.525Z,7.56
2023-01-13T21:08:56.204Z,7.41
2023-01-13T21:11:43.870Z,7.20
2023-01-13T21:14:47.443Z,7.66
2023-01-13T21:17:46.096Z,7.55
2023-01-13T21:20:16.724Z,7.65
2023-01-13T21:22:55.042Z,7.46
2023-01-13T21:25:29.748Z,7.60
2023-01-13T21:28:06.298Z,7.49
2023-01-13T21:30:39.797Z,7.34
2023-01-13T21:33:15.552Z,7.58
2023-01-13T21:35:49.494Z,7.57
2023-01-13T21:38:30.318Z,7.40
2023-01-13T21:41:22.439Z,7.52
2023-01-13T21:44:10.422Z,7.17
2023-01-13T21:46:59.251Z,7.69
2023-01-13T21:49:33.437Z,7.19
2023-01-13T21:52:08.043Z,7.62
2023-01-13T21:54:59.290Z,7.69
2023-01-13T21:57:33.826Z,7.46
2023-01-13T22:00:08.633Z,7.36
2023-01-13T22:02:38.367Z,7.37
2023-01-13T22:05:18.470Z,7.10
2023-01-13T22:07:52.348Z,7.03
2023-01-13T22:10:29.942Z,7.12
2023-01-13T22:12:59.927Z,6.88
2023-01-13T22:15:29.743Z,7.00
2023-01-13T22:17:57.228Z,6.97
2023-01-13T22:20:24.374Z,7.15
2023-01-13T22:22:51.308Z,6.69
2023-01-13T22:25:29.189Z,7.20
2023-01-13T22:28:07.025Z,7.36
2023-01-13T22:30:42.730Z,7.44
2023-01-13T22:33:13.029Z,7.50
2023-01-13T22:35:40.445Z,7.48
2023-01-13T22:38:07.665Z,7.42
2023-01-13T22:40:34.343Z,7.62
2023-01-13T22:43:01.143Z,7.38
2023-01-13T22:45:38.464Z,7.33
2023-01-13T22:48:13.380Z,7.08
2023-01-13T22:50:48.345Z,6.69
2023-01-13T22:53:15.743Z,6.85
2023-01-13T22:55:44.361Z,6.97
2023-01-13T22:58:18.665Z,6.79
2023-01-13T23:00:46.915Z,6.69
2023-01-13T23:03:13.916Z,6.88
2023-01-13T23:05:45.991Z,6.61
2023-01-13T23:08:12.770Z,6.91
2023-01-13T23:10:41.115Z,6.88
2023-01-13T23:13:13.214Z,6.82
2023-01-13T23:15:39.759Z,6.90
2023-01-13T23:18:16.784Z,6.73
2023-01-13T23:20:43.693Z,6.77
2023-01-13T23:23:10.654Z,6.59
2023-01-13T23:25:38.742Z,6.40
2023-01-13T23:28:05.866Z,6.54
2023-01-13T23:30:45.125Z,6.45
2023-01-13T23:33:12.398Z,6.09
2023-01-13T23:35:39.293Z,5.68
2023-01-13T23:38:13.976Z,6.27
2023-01-13T23:40:49.298Z,6.47
2023-01-13T23:43:27.587Z,6.25
2023-01-13T23:46:12.799Z,5.96
2023-01-13T23:48:41.033Z,6.15
2023-01-13T23:51:11.639Z,5.93
2023-01-13T23:53:46.188Z,6.13
2023-01-13T23:56:21.609Z,6.13
2023-01-13T23:58:54.027Z,6.05
